Private Wetterstation Sandau
Wetterdaten: Dienstag, 10.07.2012
Datum Zeit Temp. A. Feuchte A. Luftdruck Regen Wind Richtung Richtung Taupunkt Windchill
10.07.2012 00:01 17,1 C 72 % 1011,7 hPa 0,0 l/m 4,3 km/h (1 Bft) W-SW 247 12,0 C 17,1 C
10.07.2012 00:06 17,1 C 73 % 1011,7 hPa 0,0 l/m 2,5 km/h (1 Bft) W-SW 247 12,2 C 17,1 C
10.07.2012 00:11 17,1 C 73 % 1011,8 hPa 0,0 l/m 1,8 km/h (1 Bft) W 270 12,2 C 17,1 C
10.07.2012 00:16 17,1 C 73 % 1011,8 hPa 0,0 l/m 3,2 km/h (1 Bft) W-SW 247 12,2 C 17,1 C
10.07.2012 00:21 17,1 C 73 % 1011,8 hPa 0,0 l/m 5,4 km/h (1 Bft) SW 225 12,2 C 17,1 C
10.07.2012 00:26 17,1 C 73 % 1011,9 hPa 0,0 l/m 2,5 km/h (1 Bft) SW 225 12,2 C 17,1 C
10.07.2012 00:31 17,0 C 74 % 1012,0 hPa 0,0 l/m 8,3 km/h (2 Bft) SW 225 12,3 C 17,0 C
10.07.2012 00:36 17,1 C 74 % 1011,9 hPa 0,0 l/m 4,7 km/h (1 Bft) SW 225 12,4 C 17,1 C
10.07.2012 00:41 17,1 C 74 % 1011,9 hPa 0,0 l/m 5,0 km/h (1 Bft) SW 225 12,4 C 17,1 C
10.07.2012 00:46 17,1 C 74 % 1011,9 hPa 0,0 l/m 0,0 km/h (0 Bft) S-SW 202 12,4 C 17,1 C
10.07.2012 00:51 17,1 C 74 % 1011,7 hPa 0,0 l/m 2,2 km/h (1 Bft) S-SW 202 12,4 C 17,1 C
10.07.2012 00:56 17,1 C 74 % 1011,7 hPa 0,0 l/m 3,2 km/h (1 Bft) SW 225 12,4 C 17,1 C
10.07.2012 01:01 17,0 C 74 % 1011,7 hPa 0,0 l/m 1,8 km/h (1 Bft) SW 225 12,3 C 17,0 C
10.07.2012 01:06 16,9 C 74 % 1011,7 hPa 0,0 l/m 2,9 km/h (1 Bft) SW 225 12,2 C 16,9 C
10.07.2012 01:11 16,9 C 75 % 1011,7 hPa 0,0 l/m 5,0 km/h (1 Bft) SW 225 12,4 C 16,9 C
10.07.2012 01:16 16,9 C 75 % 1011,8 hPa 0,0 l/m 3,2 km/h (1 Bft) SW 225 12,4 C 16,9 C
10.07.2012 01:21 16,9 C 75 % 1011,8 hPa 0,0 l/m 3,2 km/h (1 Bft) SW 225 12,4 C 16,9 C
10.07.2012 01:26 16,9 C 75 % 1011,7 hPa 0,0 l/m 3,6 km/h (1 Bft) W-SW 247 12,4 C 16,9 C
10.07.2012 01:31 16,9 C 75 % 1011,6 hPa 0,0 l/m 6,5 km/h (2 Bft) SW 225 12,4 C 16,9 C
10.07.2012 01:36 17,0 C 75 % 1011,6 hPa 0,0 l/m 8,3 km/h (2 Bft) W-SW 247 12,5 C 17,0 C
10.07.2012 01:41 17,0 C 75 % 1011,7 hPa 0,0 l/m 8,3 km/h (2 Bft) SW 225 12,5 C 17,0 C
10.07.2012 01:46 17,0 C 75 % 1011,7 hPa 0,0 l/m 4,7 km/h (1 Bft) SW 225 12,5 C 17,0 C
10.07.2012 01:51 17,0 C 75 % 1011,7 hPa 0,0 l/m 8,6 km/h (2 Bft) W-SW 247 12,5 C 17,0 C
10.07.2012 01:56 16,9 C 75 % 1011,7 hPa 0,0 l/m 2,5 km/h (1 Bft) SW 225 12,4 C 16,9 C
10.07.2012 02:01 16,8 C 75 % 1011,7 hPa 0,0 l/m 5,0 km/h (1 Bft) W-SW 247 12,3 C 16,8 C
10.07.2012 02:06 16,7 C 75 % 1011,8 hPa 0,0 l/m 7,2 km/h (2 Bft) W-SW 247 12,2 C 16,7 C
10.07.2012 02:11 16,6 C 75 % 1011,8 hPa 0,0 l/m 12,2 km/h (2 Bft) W-SW 247 12,1 C 16,6 C
10.07.2012 02:16 16,6 C 76 % 1012,0 hPa 0,0 l/m 7,2 km/h (2 Bft) W-SW 247 12,3 C 16,6 C
10.07.2012 02:21 16,7 C 76 % 1011,9 hPa 0,0 l/m 13,7 km/h (3 Bft) W 270 12,4 C 16,7 C
10.07.2012 02:26 16,6 C 75 % 1012,0 hPa 0,0 l/m 10,4 km/h (2 Bft) W 270 12,1 C 16,6 C
10.07.2012 02:31 16,6 C 76 % 1012,0 hPa 0,0 l/m 7,2 km/h (2 Bft) SW 225 12,3 C 16,6 C
10.07.2012 02:36 16,6 C 76 % 1011,9 hPa 0,0 l/m 3,6 km/h (1 Bft) W-SW 247 12,3 C 16,6 C
10.07.2012 02:41 16,6 C 76 % 1011,8 hPa 0,0 l/m 10,1 km/h (2 Bft) SW 225 12,3 C 16,6 C
10.07.2012 02:46 16,6 C 76 % 1011,9 hPa 0,0 l/m 11,2 km/h (2 Bft) W 270 12,3 C 16,6 C
10.07.2012 02:51 16,6 C 76 % 1011,8 hPa 0,0 l/m 9,4 km/h (2 Bft) W 270 12,3 C 16,6 C
10.07.2012 02:56 16,6 C 76 % 1011,9 hPa 0,0 l/m 6,1 km/h (2 Bft) W 270 12,3 C 16,6 C
10.07.2012 03:01 16,6 C 76 % 1011,9 hPa 0,0 l/m 7,6 km/h (2 Bft) W-SW 247 12,3 C 16,6 C
10.07.2012 03:06 16,6 C 76 % 1011,9 hPa 0,0 l/m 7,6 km/h (2 Bft) W-SW 247 12,3 C 16,6 C
10.07.2012 03:11 16,6 C 76 % 1012,0 hPa 0,0 l/m 14,4 km/h (3 Bft) W-SW 247 12,3 C 16,6 C
10.07.2012 03:16 16,6 C 76 % 1012,0 hPa 0,0 l/m 7,9 km/h (2 Bft) W 270 12,3 C 16,6 C
10.07.2012 03:21 16,5 C 76 % 1012,1 hPa 0,0 l/m 5,8 km/h (2 Bft) W-SW 247 12,3 C 16,5 C
10.07.2012 03:26 16,5 C 76 % 1012,0 hPa 0,0 l/m 11,5 km/h (2 Bft) W-SW 247 12,3 C 16,5 C
10.07.2012 03:31 16,5 C 77 % 1012,1 hPa 0,0 l/m 2,5 km/h (1 Bft) W 270 12,5 C 16,5 C
10.07.2012 03:36 16,4 C 77 % 1012,1 hPa 0,0 l/m 13,0 km/h (3 Bft) W 270 12,4 C 16,4 C
10.07.2012 03:41 16,3 C 77 % 1012,0 hPa 0,0 l/m 10,4 km/h (2 Bft) W-SW 247 12,3 C 16,3 C
10.07.2012 03:46 16,3 C 77 % 1012,0 hPa 0,0 l/m 16,2 km/h (3 Bft) SW 225 12,3 C 16,3 C
10.07.2012 03:51 16,1 C 77 % 1012,1 hPa 0,0 l/m 5,4 km/h (1 Bft) W 270 12,1 C 16,1 C
10.07.2012 03:56 16,1 C 78 % 1012,0 hPa 0,0 l/m 5,4 km/h (1 Bft) W-SW 247 12,3 C 16,1 C
10.07.2012 04:01 16,0 C 78 % 1011,8 hPa 0,0 l/m 7,2 km/h (2 Bft) W-SW 247 12,2 C 16,0 C
10.07.2012 04:06 16,0 C 78 % 1012,0 hPa 0,0 l/m 4,0 km/h (1 Bft) W 270 12,2 C 16,0 C
10.07.2012 04:11 16,0 C 78 % 1011,9 hPa 0,0 l/m 5,0 km/h (1 Bft) W 270 12,2 C 16,0 C
10.07.2012 04:16 16,0 C 78 % 1011,9 hPa 0,0 l/m 11,2 km/h (2 Bft) W-SW 247 12,2 C 16,0 C
10.07.2012 04:21 15,9 C 78 % 1012,0 hPa 0,0 l/m 10,8 km/h (2 Bft) W-SW 247 12,1 C 15,9 C
10.07.2012 04:26 15,9 C 78 % 1011,9 hPa 0,0 l/m 6,1 km/h (2 Bft) W-SW 247 12,1 C 15,9 C
10.07.2012 04:31 15,9 C 79 % 1012,0 hPa 0,0 l/m 8,3 km/h (2 Bft) W-SW 247 12,3 C 15,9 C
10.07.2012 04:36 15,8 C 79 % 1011,8 hPa 0,0 l/m 12,6 km/h (3 Bft) W-SW 247 12,2 C 15,8 C
10.07.2012 04:41 15,8 C 79 % 1011,8 hPa 0,0 l/m 4,3 km/h (1 Bft) W-SW 247 12,2 C 15,8 C
10.07.2012 04:46 15,6 C 79 % 1012,0 hPa 0,0 l/m 9,0 km/h (2 Bft) W-SW 247 12,0 C 15,6 C
10.07.2012 04:51 15,7 C 80 % 1011,9 hPa 0,0 l/m 7,2 km/h (2 Bft) W 270 12,3 C 15,7 C
10.07.2012 04:56 15,8 C 80 % 1011,9 hPa 0,0 l/m 13,3 km/h (3 Bft) W 270 12,4 C 15,8 C
10.07.2012 05:01 15,8 C 79 % 1012,0 hPa 0,0 l/m 5,0 km/h (1 Bft) W-SW 247 12,2 C 15,8 C
10.07.2012 05:06 15,9 C 80 % 1012,1 hPa 0,0 l/m 7,2 km/h (2 Bft) SW 225 12,5 C 15,9 C
10.07.2012 05:11 15,8 C 79 % 1012,0 hPa 0,0 l/m 17,3 km/h (3 Bft) W 270 12,2 C 15,8 C
10.07.2012 05:16 15,9 C 79 % 1012,1 hPa 0,0 l/m 9,7 km/h (2 Bft) W-SW 247 12,3 C 15,9 C
10.07.2012 05:21 15,9 C 79 % 1012,1 hPa 0,0 l/m 13,3 km/h (3 Bft) S-SW 202 12,3 C 15,9 C
10.07.2012 05:26 15,9 C 79 % 1012,1 hPa 0,0 l/m 7,6 km/h (2 Bft) W-SW 247 12,3 C 15,9 C
10.07.2012 05:31 15,9 C 79 % 1012,0 hPa 0,0 l/m 13,0 km/h (3 Bft) W 270 12,3 C 15,9 C
10.07.2012 05:36 15,9 C 79 % 1012,1 hPa 0,0 l/m 10,8 km/h (2 Bft) W 270 12,3 C 15,9 C
10.07.2012 05:41 16,1 C 79 % 1012,1 hPa 0,0 l/m 12,2 km/h (2 Bft) W 270 12,5 C 16,1 C
10.07.2012 05:46 16,0 C 79 % 1012,0 hPa 0,0 l/m 8,3 km/h (2 Bft) S-SW 202 12,4 C 16,0 C
10.07.2012 05:51 16,1 C 79 % 1012,0 hPa 0,0 l/m 16,9 km/h (3 Bft) W-SW 247 12,5 C 16,1 C
10.07.2012 05:56 16,1 C 80 % 1012,2 hPa 0,0 l/m 10,4 km/h (2 Bft) S-SW 202 12,6 C 16,1 C
10.07.2012 06:01 16,2 C 79 % 1012,0 hPa 0,0 l/m 16,2 km/h (3 Bft) W 270 12,6 C 16,2 C
10.07.2012 06:06 16,3 C 79 % 1012,1 hPa 0,0 l/m 12,6 km/h (3 Bft) W-SW 247 12,6 C 16,3 C
10.07.2012 06:11 16,5 C 79 % 1012,2 hPa 0,0 l/m 13,3 km/h (3 Bft) W-SW 247 12,8 C 16,5 C
10.07.2012 06:16 16,9 C 77 % 1012,1 hPa 0,0 l/m 5,0 km/h (1 Bft) W-SW 247 12,8 C 16,9 C
10.07.2012 06:21 16,7 C 77 % 1012,1 hPa 0,0 l/m 5,0 km/h (1 Bft) SW 225 12,6 C 16,7 C
10.07.2012 06:26 16,5 C 78 % 1012,2 hPa 0,0 l/m 7,9 km/h (2 Bft) SW 225 12,6 C 16,5 C
10.07.2012 06:31 16,4 C 78 % 1012,2 hPa 0,0 l/m 13,7 km/h (3 Bft) S 180 12,6 C 16,4 C
10.07.2012 06:36 16,4 C 79 % 1012,1 hPa 0,0 l/m 5,8 km/h (2 Bft) SW 225 12,7 C 16,4 C
10.07.2012 06:41 16,4 C 79 % 1012,2 hPa 0,0 l/m 9,4 km/h (2 Bft) W-SW 247 12,7 C 16,4 C
10.07.2012 06:46 16,5 C 78 % 1012,3 hPa 0,0 l/m 8,6 km/h (2 Bft) W-SW 247 12,6 C 16,5 C
10.07.2012 06:51 16,6 C 78 % 1012,3 hPa 0,0 l/m 7,6 km/h (2 Bft) W-SW 247 12,7 C 16,6 C
10.07.2012 06:56 16,9 C 78 % 1012,5 hPa 0,0 l/m 7,6 km/h (2 Bft) W-SW 247 13,0 C 16,9 C
10.07.2012 07:01 17,3 C 77 % 1012,4 hPa 0,0 l/m 6,5 km/h (2 Bft) W-SW 247 13,2 C 17,3 C
10.07.2012 07:06 19,1 C 72 % 1012,4 hPa 0,0 l/m 17,3 km/h (3 Bft) W-SW 247 13,9 C 19,1 C
10.07.2012 07:11 19,7 C 69 % 1012,3 hPa 0,0 l/m 2,2 km/h (1 Bft) W 270 13,8 C 19,7 C
10.07.2012 07:16 19,9 C 68 % 1012,4 hPa 0,0 l/m 5,8 km/h (2 Bft) W-SW 247 13,8 C 19,9 C
10.07.2012 07:21 19,9 C 68 % 1012,3 hPa 0,0 l/m 13,0 km/h (3 Bft) W-SW 247 13,8 C 19,9 C
10.07.2012 07:26 19,4 C 68 % 1012,3 hPa 0,0 l/m 9,7 km/h (2 Bft) W 270 13,3 C 19,4 C
10.07.2012 07:31 18,8 C 71 % 1012,4 hPa 0,0 l/m 19,8 km/h (3 Bft) W-SW 247 13,4 C 18,8 C
10.07.2012 07:36 18,5 C 72 % 1012,3 hPa 0,0 l/m 6,5 km/h (2 Bft) W-SW 247 13,4 C 18,5 C
10.07.2012 07:41 18,3 C 73 % 1012,4 hPa 0,0 l/m 10,1 km/h (2 Bft) W 270 13,4 C 18,3 C
10.07.2012 07:46 18,2 C 73 % 1012,6 hPa 0,0 l/m 10,8 km/h (2 Bft) W 270 13,3 C 18,2 C
10.07.2012 07:51 18,1 C 73 % 1012,5 hPa 0,0 l/m 11,5 km/h (2 Bft) W-SW 247 13,2 C 18,1 C
10.07.2012 07:56 18,2 C 74 % 1012,5 hPa 0,0 l/m 20,9 km/h (4 Bft) W 270 13,5 C 18,2 C
10.07.2012 08:01 18,3 C 73 % 1012,6 hPa 0,0 l/m 23,0 km/h (4 Bft) W 270 13,4 C 18,3 C
10.07.2012 08:06 18,6 C 73 % 1012,6 hPa 0,0 l/m 13,3 km/h (3 Bft) W 270 13,7 C 18,6 C
10.07.2012 08:11 18,9 C 72 % 1012,6 hPa 0,0 l/m 9,0 km/h (2 Bft) W 270 13,7 C 18,9 C
10.07.2012 08:16 19,1 C 71 % 1012,7 hPa 0,0 l/m 10,8 km/h (2 Bft) W 270 13,7 C 19,1 C
10.07.2012 08:21 18,6 C 72 % 1012,7 hPa 0,0 l/m 6,1 km/h (2 Bft) W-SW 247 13,4 C 18,6 C
10.07.2012 08:26 18,6 C 72 % 1012,5 hPa 0,0 l/m 8,3 km/h (2 Bft) W-SW 247 13,4 C 18,6 C
10.07.2012 08:31 18,5 C 72 % 1012,7 hPa 0,0 l/m 8,3 km/h (2 Bft) W-NW 292 13,4 C 18,5 C
10.07.2012 08:36 18,7 C 72 % 1012,7 hPa 0,0 l/m 3,6 km/h (1 Bft) W 270 13,5 C 18,7 C
10.07.2012 08:41 19,1 C 72 % 1012,8 hPa 0,0 l/m 6,1 km/h (2 Bft) W-SW 247 13,9 C 19,1 C
10.07.2012 08:46 19,2 C 71 % 1012,7 hPa 0,0 l/m 8,3 km/h (2 Bft) W-NW 292 13,8 C 19,2 C
10.07.2012 08:51 19,3 C 71 % 1012,8 hPa 0,0 l/m 9,0 km/h (2 Bft) W-SW 247 13,9 C 19,3 C
10.07.2012 08:56 19,5 C 69 % 1012,8 hPa 0,0 l/m 7,9 km/h (2 Bft) SW 225 13,7 C 19,5 C
10.07.2012 09:01 19,4 C 70 % 1012,8 hPa 0,0 l/m 17,6 km/h (3 Bft) W-SW 247 13,8 C 19,4 C
10.07.2012 09:06 19,4 C 70 % 1012,8 hPa 0,0 l/m 11,5 km/h (2 Bft) W 270 13,8 C 19,4 C
10.07.2012 09:11 19,6 C 70 % 1012,8 hPa 0,0 l/m 0,0 km/h (0 Bft) W-NW 292 14,0 C 19,6 C
10.07.2012 09:16 19,5 C 69 % 1012,9 hPa 0,0 l/m 8,6 km/h (2 Bft) W-NW 292 13,7 C 19,5 C
10.07.2012 09:21 19,4 C 69 % 1013,0 hPa 0,0 l/m 8,6 km/h (2 Bft) W-SW 247 13,6 C 19,4 C
10.07.2012 09:26 19,6 C 70 % 1013,0 hPa 0,0 l/m 6,1 km/h (2 Bft) SW 225 14,0 C 19,6 C
10.07.2012 09:31 19,8 C 69 % 1012,9 hPa 0,0 l/m 7,9 km/h (2 Bft) W 270 13,9 C 19,8 C
10.07.2012 09:36 19,4 C 69 % 1013,0 hPa 0,0 l/m 9,7 km/h (2 Bft) W 270 13,6 C 19,4 C
10.07.2012 09:41 19,6 C 68 % 1013,0 hPa 0,0 l/m 12,2 km/h (2 Bft) W-NW 292 13,5 C 19,6 C
10.07.2012 09:46 19,8 C 69 % 1013,0 hPa 0,0 l/m 8,6 km/h (2 Bft) W 270 13,9 C 19,8 C
10.07.2012 09:51 19,9 C 68 % 1013,1 hPa 0,0 l/m 9,4 km/h (2 Bft) W-SW 247 13,8 C 19,9 C
10.07.2012 09:56 20,4 C 66 % 1013,1 hPa 0,0 l/m 7,9 km/h (2 Bft) SW 225 13,8 C 20,4 C
10.07.2012 10:01 20,8 C 66 % 1013,0 hPa 0,0 l/m 20,5 km/h (4 Bft) W 270 14,2 C 20,8 C
10.07.2012 10:06 20,9 C 65 % 1013,0 hPa 0,0 l/m 15,1 km/h (3 Bft) W 270 14,1 C 20,9 C
10.07.2012 10:11 21,3 C 63 % 1013,1 hPa 0,0 l/m 10,4 km/h (2 Bft) SW 225 14,0 C 21,3 C
10.07.2012 10:16 21,3 C 63 % 1012,7 hPa 0,0 l/m 18,0 km/h (3 Bft) W-SW 247 14,0 C 21,3 C
10.07.2012 10:21 21,3 C 62 % 1012,8 hPa 0,0 l/m 10,1 km/h (2 Bft) W 270 13,7 C 21,3 C
10.07.2012 10:26 20,8 C 63 % 1012,7 hPa 0,0 l/m 6,1 km/h (2 Bft) W-SW 247 13,5 C 20,8 C
10.07.2012 10:31 20,5 C 64 % 1013,1 hPa 0,0 l/m 18,0 km/h (3 Bft) W-SW 247 13,5 C 20,5 C
10.07.2012 10:36 20,5 C 64 % 1013,0 hPa 0,0 l/m 9,7 km/h (2 Bft) NW 315 13,5 C 20,5 C
10.07.2012 10:41 21,1 C 62 % 1013,1 hPa 0,0 l/m 9,0 km/h (2 Bft) W-NW 292 13,5 C 21,1 C
10.07.2012 10:46 21,5 C 61 % 1013,0 hPa 0,0 l/m 10,1 km/h (2 Bft) W 270 13,7 C 21,5 C
10.07.2012 10:51 21,9 C 60 % 1013,1 hPa 0,0 l/m 23,0 km/h (4 Bft) W-SW 247 13,8 C 21,9 C
10.07.2012 10:56 22,2 C 60 % 1013,0 hPa 0,0 l/m 20,5 km/h (4 Bft) W-SW 247 14,1 C 22,2 C
10.07.2012 11:01 22,0 C 59 % 1013,2 hPa 0,0 l/m 15,8 km/h (3 Bft) W-SW 247 13,6 C 22,0 C
10.07.2012 11:06 22,6 C 59 % 1013,1 hPa 0,0 l/m 12,2 km/h (2 Bft) W-SW 247 14,2 C 22,6 C
10.07.2012 11:11 23,0 C 57 % 1013,0 hPa 0,0 l/m 10,1 km/h (2 Bft) W-NW 292 14,0 C 23,0 C
10.07.2012 11:16 22,9 C 57 % 1013,1 hPa 0,0 l/m 8,6 km/h (2 Bft) W-NW 292 13,9 C 22,9 C
10.07.2012 11:21 22,5 C 57 % 1013,2 hPa 0,0 l/m 4,0 km/h (1 Bft) W-NW 292 13,5 C 22,5 C
10.07.2012 11:26 22,4 C 57 % 1013,1 hPa 0,0 l/m 7,6 km/h (2 Bft) W-SW 247 13,5 C 22,4 C
10.07.2012 11:31 22,3 C 57 % 1013,2 hPa 0,0 l/m 12,6 km/h (3 Bft) W 270 13,4 C 22,3 C
10.07.2012 11:36 22,4 C 58 % 1013,1 hPa 0,0 l/m 13,3 km/h (3 Bft) SW 225 13,7 C 22,4 C
10.07.2012 11:41 23,1 C 55 % 1013,1 hPa 0,0 l/m 18,0 km/h (3 Bft) SW 225 13,6 C 23,1 C
10.07.2012 11:46 22,9 C 55 % 1013,2 hPa 0,0 l/m 9,7 km/h (2 Bft) W-SW 247 13,4 C 22,9 C
10.07.2012 11:51 23,3 C 54 % 1013,1 hPa 0,0 l/m 11,9 km/h (2 Bft) W 270 13,5 C 23,3 C
10.07.2012 11:56 23,8 C 53 % 1013,0 hPa 0,0 l/m 13,3 km/h (3 Bft) W 270 13,6 C 23,8 C
10.07.2012 12:01 23,1 C 53 % 1013,1 hPa 0,0 l/m 16,9 km/h (3 Bft) W-SW 247 13,0 C 23,1 C
10.07.2012 12:06 22,5 C 54 % 1013,1 hPa 0,0 l/m 14,8 km/h (3 Bft) W-SW 247 12,7 C 22,5 C
10.07.2012 12:11 22,4 C 56 % 1012,9 hPa 0,0 l/m 23,0 km/h (4 Bft) W-SW 247 13,2 C 22,4 C
10.07.2012 12:16 22,3 C 56 % 1012,9 hPa 0,0 l/m 8,3 km/h (2 Bft) W-NW 292 13,1 C 22,3 C
10.07.2012 12:21 22,1 C 56 % 1012,9 hPa 0,0 l/m 10,8 km/h (2 Bft) W-NW 292 12,9 C 22,1 C
10.07.2012 12:26 22,4 C 57 % 1012,8 hPa 0,0 l/m 5,0 km/h (1 Bft) W 270 13,5 C 22,4 C
10.07.2012 12:31 22,8 C 56 % 1012,8 hPa 0,0 l/m 13,3 km/h (3 Bft) W-NW 292 13,6 C 22,8 C
10.07.2012 12:36 23,8 C 53 % 1012,8 hPa 0,0 l/m 9,7 km/h (2 Bft) S-SW 202 13,6 C 23,8 C
10.07.2012 12:41 24,2 C 51 % 1012,8 hPa 0,0 l/m 15,8 km/h (3 Bft) W 270 13,4 C 24,2 C
10.07.2012 12:46 23,6 C 52 % 1012,9 hPa 0,0 l/m 11,9 km/h (2 Bft) W 270 13,2 C 23,6 C
10.07.2012 12:51 24,1 C 52 % 1012,8 hPa 0,0 l/m 8,6 km/h (2 Bft) W-SW 247 13,6 C 24,1 C
10.07.2012 12:56 24,9 C 51 % 1012,8 hPa 0,0 l/m 12,6 km/h (3 Bft) SW 225 14,1 C 24,9 C
10.07.2012 13:01 25,2 C 50 % 1012,8 hPa 0,0 l/m 24,1 km/h (4 Bft) W 270 14,0 C 25,2 C
10.07.2012 13:06 25,3 C 49 % 1012,7 hPa 0,0 l/m 10,8 km/h (2 Bft) S-SW 202 13,8 C 25,3 C
10.07.2012 13:11 25,8 C 50 % 1012,7 hPa 0,0 l/m 8,6 km/h (2 Bft) SW 225 14,6 C 25,8 C
10.07.2012 13:16 25,7 C 48 % 1012,7 hPa 0,0 l/m 8,3 km/h (2 Bft) SW 225 13,9 C 25,7 C
10.07.2012 13:21 24,6 C 48 % 1012,7 hPa 0,0 l/m 10,1 km/h (2 Bft) W 270 12,8 C 24,6 C
10.07.2012 13:26 24,6 C 49 % 1012,6 hPa 0,0 l/m 0,0 km/h (0 Bft) W-SW 247 13,2 C 24,6 C
10.07.2012 13:31 24,3 C 49 % 1012,7 hPa 0,0 l/m 8,3 km/h (2 Bft) SW 225 12,9 C 24,3 C
10.07.2012 13:36 24,5 C 49 % 1012,6 hPa 0,0 l/m 16,9 km/h (3 Bft) W 270 13,1 C 24,5 C
10.07.2012 13:41 24,2 C 49 % 1012,6 hPa 0,0 l/m 9,4 km/h (2 Bft) W 270 12,8 C 24,2 C
10.07.2012 13:46 24,6 C 49 % 1012,6 hPa 0,0 l/m 6,1 km/h (2 Bft) S-SW 202 13,2 C 24,6 C
10.07.2012 13:51 24,3 C 48 % 1012,4 hPa 0,0 l/m 19,1 km/h (3 Bft) S 180 12,6 C 24,3 C
10.07.2012 13:56 23,8 C 49 % 1012,6 hPa 0,0 l/m 7,6 km/h (2 Bft) W-SW 247 12,4 C 23,8 C
10.07.2012 14:01 23,1 C 51 % 1012,5 hPa 0,0 l/m 7,2 km/h (2 Bft) W-SW 247 12,4 C 23,1 C
10.07.2012 14:06 22,8 C 51 % 1012,7 hPa 0,0 l/m 11,5 km/h (2 Bft) S-SW 202 12,1 C 22,8 C
10.07.2012 14:11 22,4 C 52 % 1012,6 hPa 0,0 l/m 7,6 km/h (2 Bft) W-SW 247 12,1 C 22,4 C
10.07.2012 14:16 22,3 C 53 % 1012,5 hPa 0,0 l/m 9,4 km/h (2 Bft) W-SW 247 12,2 C 22,3 C
10.07.2012 14:21 22,3 C 54 % 1012,5 hPa 0,0 l/m 19,1 km/h (3 Bft) W 270 12,5 C 22,3 C
10.07.2012 14:26 22,7 C 53 % 1012,5 hPa 0,0 l/m 10,1 km/h (2 Bft) S-SW 202 12,6 C 22,7 C
10.07.2012 14:31 23,1 C 52 % 1012,5 hPa 0,0 l/m 7,6 km/h (2 Bft) SW 225 12,7 C 23,1 C
10.07.2012 14:36 23,4 C 51 % 1012,6 hPa 0,0 l/m 11,5 km/h (2 Bft) NW 315 12,7 C 23,4 C
10.07.2012 14:41 23,3 C 49 % 1012,5 hPa 0,0 l/m 4,0 km/h (1 Bft) W 270 12,0 C 23,3 C
10.07.2012 14:46 23,3 C 50 % 1012,5 hPa 0,0 l/m 4,0 km/h (1 Bft) W 270 12,3 C 23,3 C
10.07.2012 14:51 23,2 C 51 % 1012,4 hPa 0,0 l/m 4,0 km/h (1 Bft) W-NW 292 12,5 C 23,2 C
10.07.2012 14:56 23,2 C 51 % 1012,4 hPa 0,0 l/m 4,0 km/h (1 Bft) W-NW 292 12,5 C 23,2 C
10.07.2012 15:01 23,2 C 51 % 1012,4 hPa 0,0 l/m 8,6 km/h (2 Bft) W-SW 247 12,5 C 23,2 C
10.07.2012 15:06 23,4 C 50 % 1012,4 hPa 0,0 l/m 14,8 km/h (3 Bft) W-NW 292 12,4 C 23,4 C
10.07.2012 15:11 23,4 C 51 % 1012,5 hPa 0,0 l/m 6,1 km/h (2 Bft) W 270 12,7 C 23,4 C
10.07.2012 15:16 23,6 C 51 % 1012,4 hPa 0,0 l/m 11,9 km/h (2 Bft) W-SW 247 12,9 C 23,6 C
10.07.2012 15:21 23,9 C 51 % 1012,3 hPa 0,0 l/m 5,8 km/h (2 Bft) W-SW 247 13,1 C 23,9 C
10.07.2012 15:26 24,0 C 50 % 1012,4 hPa 0,0 l/m 5,8 km/h (2 Bft) S-SW 202 12,9 C 24,0 C
10.07.2012 15:31 24,2 C 50 % 1012,4 hPa 0,0 l/m 11,2 km/h (2 Bft) W-SW 247 13,1 C 24,2 C
10.07.2012 15:36 24,2 C 49 % 1012,4 hPa 0,0 l/m 4,7 km/h (1 Bft) SW 225 12,8 C 24,2 C
10.07.2012 15:41 24,1 C 49 % 1012,2 hPa 0,0 l/m 9,0 km/h (2 Bft) W-NW 292 12,7 C 24,1 C
10.07.2012 15:46 23,9 C 49 % 1012,4 hPa 0,0 l/m 4,7 km/h (1 Bft) W-NW 292 12,5 C 23,9 C
10.07.2012 15:51 24,3 C 50 % 1012,4 hPa 0,0 l/m 10,8 km/h (2 Bft) W 270 13,2 C 24,3 C
10.07.2012 15:56 24,9 C 49 % 1012,5 hPa 0,0 l/m 10,1 km/h (2 Bft) W 270 13,4 C 24,9 C
10.07.2012 16:01 24,9 C 48 % 1012,4 hPa 0,0 l/m 5,4 km/h (1 Bft) W-SW 247 13,1 C 24,9 C
10.07.2012 16:06 24,6 C 48 % 1012,2 hPa 0,0 l/m 5,0 km/h (1 Bft) W 270 12,8 C 24,6 C
10.07.2012 16:11 24,3 C 48 % 1012,2 hPa 0,0 l/m 7,9 km/h (2 Bft) W 270 12,6 C 24,3 C
10.07.2012 16:16 24,3 C 49 % 1012,2 hPa 0,0 l/m 6,1 km/h (2 Bft) S-SW 202 12,9 C 24,3 C
10.07.2012 16:21 24,9 C 47 % 1012,2 hPa 0,0 l/m 9,4 km/h (2 Bft) W 270 12,8 C 24,9 C
10.07.2012 16:26 25,6 C 45 % 1012,1 hPa 0,0 l/m 10,1 km/h (2 Bft) S-SW 202 12,8 C 25,6 C
10.07.2012 16:31 26,1 C 44 % 1012,0 hPa 0,0 l/m 11,5 km/h (2 Bft) SW 225 12,9 C 26,1 C
10.07.2012 16:36 26,2 C 43 % 1011,9 hPa 0,0 l/m 11,9 km/h (2 Bft) SW 225 12,6 C 26,2 C
10.07.2012 16:41 26,3 C 43 % 1011,9 hPa 0,0 l/m 7,9 km/h (2 Bft) S-SW 202 12,7 C 26,3 C
10.07.2012 16:46 26,1 C 42 % 1011,9 hPa 0,0 l/m 5,8 km/h (2 Bft) W-SW 247 12,2 C 26,1 C
10.07.2012 16:51 25,4 C 43 % 1011,9 hPa 0,0 l/m 10,1 km/h (2 Bft) W 270 11,9 C 25,4 C
10.07.2012 16:56 25,1 C 45 % 1011,9 hPa 0,0 l/m 10,1 km/h (2 Bft) SW 225 12,3 C 25,1 C
10.07.2012 17:01 25,4 C 44 % 1011,9 hPa 0,0 l/m 11,2 km/h (2 Bft) SW 225 12,2 C 25,4 C
10.07.2012 17:06 25,9 C 44 % 1011,8 hPa 0,0 l/m 14,8 km/h (3 Bft) SW 225 12,7 C 25,9 C
10.07.2012 17:11 25,9 C 43 % 1011,8 hPa 0,0 l/m 8,6 km/h (2 Bft) W-SW 247 12,3 C 25,9 C
10.07.2012 17:16 25,8 C 43 % 1011,8 hPa 0,0 l/m 11,2 km/h (2 Bft) W-SW 247 12,3 C 25,8 C
10.07.2012 17:21 25,3 C 44 % 1011,8 hPa 0,0 l/m 6,5 km/h (2 Bft) W-SW 247 12,2 C 25,3 C
10.07.2012 17:26 25,6 C 45 % 1011,7 hPa 0,0 l/m 4,0 km/h (1 Bft) SW 225 12,8 C 25,6 C
10.07.2012 17:31 26,1 C 43 % 1011,7 hPa 0,0 l/m 9,7 km/h (2 Bft) W 270 12,5 C 26,1 C
10.07.2012 17:36 26,6 C 43 % 1011,7 hPa 0,0 l/m 10,8 km/h (2 Bft) SW 225 13,0 C 26,6 C
10.07.2012 17:41 26,8 C 42 % 1011,7 hPa 0,0 l/m 9,7 km/h (2 Bft) S 180 12,8 C 26,8 C
10.07.2012 17:46 25,9 C 42 % 1011,6 hPa 0,0 l/m 6,1 km/h (2 Bft) SW 225 12,0 C 25,9 C
10.07.2012 17:51 24,9 C 44 % 1011,6 hPa 0,0 l/m 12,2 km/h (2 Bft) S-SW 202 11,8 C 24,9 C
10.07.2012 17:56 25,1 C 44 % 1011,6 hPa 0,0 l/m 3,2 km/h (1 Bft) S-SW 202 12,0 C 25,1 C
10.07.2012 18:01 25,5 C 44 % 1011,6 hPa 0,0 l/m 16,6 km/h (3 Bft) W-SW 247 12,3 C 25,5 C
10.07.2012 18:06 26,2 C 42 % 1011,6 hPa 0,0 l/m 9,7 km/h (2 Bft) W-NW 292 12,3 C 26,2 C
10.07.2012 18:11 26,4 C 42 % 1011,6 hPa 0,0 l/m 11,9 km/h (2 Bft) W-SW 247 12,4 C 26,4 C
10.07.2012 18:16 25,9 C 42 % 1011,6 hPa 0,0 l/m 7,6 km/h (2 Bft) W-SW 247 12,0 C 25,9 C
10.07.2012 18:21 25,5 C 44 % 1011,7 hPa 0,0 l/m 4,3 km/h (1 Bft) W 270 12,3 C 25,5 C
10.07.2012 18:26 25,8 C 44 % 1011,6 hPa 0,0 l/m 4,0 km/h (1 Bft) S-SW 202 12,6 C 25,8 C
10.07.2012 18:31 25,9 C 43 % 1011,5 hPa 0,0 l/m 5,4 km/h (1 Bft) S-SW 202 12,3 C 25,9 C
10.07.2012 18:36 26,1 C 43 % 1011,3 hPa 0,0 l/m 7,2 km/h (2 Bft) SW 225 12,5 C 26,1 C
10.07.2012 18:41 26,1 C 43 % 1011,4 hPa 0,0 l/m 4,3 km/h (1 Bft) SW 225 12,5 C 26,1 C
10.07.2012 18:46 26,1 C 43 % 1011,4 hPa 0,0 l/m 0,0 km/h (0 Bft) S-SO 157 12,5 C 26,1 C
10.07.2012 18:51 25,9 C 43 % 1011,4 hPa 0,0 l/m 9,4 km/h (2 Bft) SW 225 12,3 C 25,9 C
10.07.2012 18:56 25,8 C 44 % 1011,3 hPa 0,0 l/m 10,8 km/h (2 Bft) SO 135 12,6 C 25,8 C
10.07.2012 19:01 25,6 C 44 % 1011,3 hPa 0,0 l/m 4,7 km/h (1 Bft) S-SO 157 12,4 C 25,6 C
10.07.2012 19:06 25,7 C 44 % 1011,3 hPa 0,0 l/m 4,0 km/h (1 Bft) O-SO 112 12,5 C 25,7 C
10.07.2012 19:11 25,9 C 44 % 1011,3 hPa 0,0 l/m 15,5 km/h (3 Bft) W-SW 247 12,7 C 25,9 C
10.07.2012 19:16 25,6 C 44 % 1011,2 hPa 0,0 l/m 5,8 km/h (2 Bft) S 180 12,4 C 25,6 C
10.07.2012 19:21 25,5 C 44 % 1011,3 hPa 0,0 l/m 6,1 km/h (2 Bft) S 180 12,3 C 25,5 C
10.07.2012 19:26 25,4 C 44 % 1011,2 hPa 0,0 l/m 9,4 km/h (2 Bft) SW 225 12,2 C 25,4 C
10.07.2012 19:31 24,9 C 45 % 1011,4 hPa 0,0 l/m 2,5 km/h (1 Bft) S 180 12,1 C 24,9 C
10.07.2012 19:36 24,4 C 46 % 1011,4 hPa 0,0 l/m 3,6 km/h (1 Bft) W 270 12,0 C 24,4 C
10.07.2012 19:41 24,1 C 47 % 1011,4 hPa 0,0 l/m 4,0 km/h (1 Bft) S-SW 202 12,1 C 24,1 C
10.07.2012 19:46 23,8 C 48 % 1011,3 hPa 0,0 l/m 5,8 km/h (2 Bft) S-SW 202 12,1 C 23,8 C
10.07.2012 19:51 23,5 C 50 % 1011,3 hPa 0,0 l/m 0,0 km/h (0 Bft) S-SW 202 12,5 C 23,5 C
10.07.2012 19:56 23,2 C 50 % 1011,3 hPa 0,0 l/m 2,2 km/h (1 Bft) S 180 12,2 C 23,2 C
10.07.2012 20:01 23,1 C 51 % 1011,4 hPa 0,0 l/m 2,5 km/h (1 Bft) S-SW 202 12,4 C 23,1 C
10.07.2012 20:06 22,9 C 51 % 1011,5 hPa 0,0 l/m 0,0 km/h (0 Bft) S-SW 202 12,2 C 22,9 C
10.07.2012 20:11 22,7 C 52 % 1011,5 hPa 0,0 l/m 1,4 km/h (1 Bft) S-SW 202 12,3 C 22,7 C
10.07.2012 20:16 22,6 C 53 % 1011,6 hPa 0,0 l/m 1,4 km/h (1 Bft) S-SW 202 12,5 C 22,6 C
10.07.2012 20:21 22,6 C 53 % 1011,6 hPa 0,0 l/m 3,6 km/h (1 Bft) S-SW 202 12,5 C 22,6 C
10.07.2012 20:26 22,5 C 53 % 1011,6 hPa 0,0 l/m 0,0 km/h (0 Bft) S-SW 202 12,4 C 22,5 C
10.07.2012 20:31 22,4 C 53 % 1011,6 hPa 0,0 l/m 0,0 km/h (0 Bft) S-SW 202 12,3 C 22,4 C
10.07.2012 20:36 22,2 C 53 % 1011,6 hPa 0,0 l/m 0,0 km/h (0 Bft) S-SW 202 12,2 C 22,2 C
10.07.2012 20:41 22,1 C 53 % 1011,6 hPa 0,0 l/m 1,8 km/h (1 Bft) S-SW 202 12,1 C 22,1 C
10.07.2012 20:46 22,0 C 53 % 1011,4 hPa 0,0 l/m 0,0 km/h (0 Bft) S-SW 202 12,0 C 22,0 C
10.07.2012 20:51 21,9 C 54 % 1011,3 hPa 0,0 l/m 2,2 km/h (1 Bft) S-SW 202 12,2 C 21,9 C
10.07.2012 20:56 21,8 C 54 % 1011,4 hPa 0,0 l/m 0,0 km/h (0 Bft) S-SW 202 12,1 C 21,8 C
10.07.2012 21:01 21,6 C 55 % 1011,3 hPa 0,0 l/m 0,0 km/h (0 Bft) S-SW 202 12,2 C 21,6 C
10.07.2012 21:06 21,5 C 55 % 1011,5 hPa 0,0 l/m 1,4 km/h (1 Bft) S-SW 202 12,1 C 21,5 C
10.07.2012 21:11 21,4 C 56 % 1011,6 hPa 0,0 l/m 0,0 km/h (0 Bft) S-SW 202 12,3 C 21,4 C
10.07.2012 21:16 21,3 C 56 % 1011,6 hPa 0,0 l/m 0,0 km/h (0 Bft) S-SW 202 12,2 C 21,3 C
10.07.2012 21:21 21,2 C 57 % 1011,6 hPa 0,0 l/m 2,5 km/h (1 Bft) S-SO 157 12,3 C 21,2 C
10.07.2012 21:26 21,1 C 57 % 1011,7 hPa 0,0 l/m 0,0 km/h (0 Bft) S-SO 157 12,2 C 21,1 C
10.07.2012 21:31 20,9 C 58 % 1011,7 hPa 0,0 l/m 2,9 km/h (1 Bft) S-SO 157 12,3 C 20,9 C
10.07.2012 21:36 20,8 C 58 % 1011,8 hPa 0,0 l/m 0,0 km/h (0 Bft) S-SO 157 12,2 C 20,8 C
10.07.2012 21:41 20,8 C 58 % 1011,8 hPa 0,0 l/m 1,8 km/h (1 Bft) S-SO 157 12,2 C 20,8 C
10.07.2012 21:46 20,6 C 59 % 1011,8 hPa 0,0 l/m 0,0 km/h (0 Bft) S-SO 157 12,3 C 20,6 C
10.07.2012 21:51 20,6 C 59 % 1011,8 hPa 0,0 l/m 0,0 km/h (0 Bft) S-SO 157 12,3 C 20,6 C
10.07.2012 21:56 20,5 C 59 % 1011,7 hPa 0,0 l/m 1,1 km/h (1 Bft) S-SO 157 12,2 C 20,5 C
10.07.2012 22:01 20,4 C 60 % 1011,8 hPa 0,0 l/m 1,8 km/h (1 Bft) S-SW 202 12,4 C 20,4 C
10.07.2012 22:06 20,3 C 61 % 1012,0 hPa 0,0 l/m 1,8 km/h (1 Bft) S-SW 202 12,5 C 20,3 C
10.07.2012 22:11 20,0 C 63 % 1011,9 hPa 0,0 l/m 3,6 km/h (1 Bft) S-SW 202 12,7 C 20,0 C
10.07.2012 22:16 19,6 C 64 % 1011,9 hPa 0,0 l/m 1,4 km/h (1 Bft) S-SW 202 12,6 C 19,6 C
10.07.2012 22:21 19,6 C 64 % 1011,9 hPa 0,0 l/m 0,0 km/h (0 Bft) NW 315 12,6 C 19,6 C
10.07.2012 22:26 19,6 C 64 % 1011,9 hPa 0,0 l/m 0,0 km/h (0 Bft) NW 315 12,6 C 19,6 C
10.07.2012 22:31 19,6 C 65 % 1011,8 hPa 0,0 l/m 0,0 km/h (0 Bft) W 270 12,8 C 19,6 C
10.07.2012 22:36 19,5 C 68 % 1012,1 hPa 0,0 l/m 7,6 km/h (2 Bft) SW 225 13,4 C 19,5 C
10.07.2012 22:41 19,3 C 68 % 1012,1 hPa 0,0 l/m 7,2 km/h (2 Bft) W 270 13,2 C 19,3 C
10.07.2012 22:46 19,1 C 69 % 1012,1 hPa 0,0 l/m 3,6 km/h (1 Bft) W-SW 247 13,3 C 19,1 C
10.07.2012 22:51 19,0 C 70 % 1012,3 hPa 0,0 l/m 5,0 km/h (1 Bft) SW 225 13,4 C 19,0 C
10.07.2012 22:56 18,9 C 71 % 1012,4 hPa 0,0 l/m 6,1 km/h (2 Bft) S-SW 202 13,5 C 18,9 C
10.07.2012 23:01 18,9 C 71 % 1012,2 hPa 0,0 l/m 6,1 km/h (2 Bft) SW 225 13,5 C 18,9 C
10.07.2012 23:06 18,8 C 72 % 1012,0 hPa 0,0 l/m 6,1 km/h (2 Bft) W-SW 247 13,6 C 18,8 C
10.07.2012 23:11 18,7 C 72 % 1011,9 hPa 0,0 l/m 1,8 km/h (1 Bft) S 180 13,5 C 18,7 C
10.07.2012 23:16 18,6 C 73 % 1011,9 hPa 0,0 l/m 0,0 km/h (0 Bft) SW 225 13,7 C 18,6 C
10.07.2012 23:21 18,6 C 73 % 1012,0 hPa 0,0 l/m 3,6 km/h (1 Bft) S-SW 202 13,7 C 18,6 C
10.07.2012 23:26 18,5 C 74 % 1012,1 hPa 0,0 l/m 7,9 km/h (2 Bft) SW 225 13,8 C 18,5 C
10.07.2012 23:31 18,4 C 74 % 1012,3 hPa 0,0 l/m 3,6 km/h (1 Bft) S 180 13,7 C 18,4 C
10.07.2012 23:36 18,4 C 74 % 1012,2 hPa 0,0 l/m 5,8 km/h (2 Bft) W-SW 247 13,7 C 18,4 C
10.07.2012 23:41 18,4 C 74 % 1012,1 hPa 0,0 l/m 0,0 km/h (0 Bft) S-SW 202 13,7 C 18,4 C
10.07.2012 23:46 18,4 C 74 % 1012,0 hPa 0,0 l/m 1,1 km/h (1 Bft) S-SW 202 13,7 C 18,4 C
10.07.2012 23:51 18,4 C 75 % 1011,8 hPa 0,0 l/m 2,2 km/h (1 Bft) S-SW 202 13,9 C 18,4 C
10.07.2012 23:56 18,3 C 76 % 1012,0 hPa 0,0 l/m 0,0 km/h (0 Bft) S-SW 202 14,0 C 18,3 C
_ Min-Zeit 04:46 16:46 19:16 - 00:46 - - 17:51 04:46
Minimum _ 15,6 C 42 % 1011,2 hPa - 0,0 km/h (0 Bft) - - 11,8 C 15,6 C
_ Max-Zeit 17:41 04:51 11:01 00:01 13:01 - - 13:11 17:41
Maximum _ 26,8 C 80 % 1013,2 hPa 0,0 l/m 24,1 km/h
W (4 Bft)
- - 14,6 C 26,8 C
Durchschnitt _ 20,6 C 62 % 1012,2 hPa #0,0 l/m 7,9 km/h (2 Bft) W-SW - 12,8 C 20,6 C
(c) by David Heller